Time;durP1;ratioP1;P1;durP2;ratioP2;P2;SDS_P1;SDS_P2;PMS_P1;PMS_P2;Temp;Humidity;BMP_temperature;BMP_pressure;BME280_temperature;BME280_humidity;BME280_pressure;Samples;Min_cycle;Max_cycle;Signal;HPM_P1;HPM_P2
2022/02/13 00:00:10;;;;;;;5.90;5.15;;;;;;;-0.06;70.55;102169.66;1694151;83;20999;-64
2022/02/13 00:02:40;;;;;;;5.53;3.70;;;;;;;-0.04;70.51;102174.38;1702573;83;21024;-64
2022/02/13 00:05:08;;;;;;;8.13;4.47;;;;;;;0.01;70.23;102164.52;1706809;83;21499;-63
2022/02/13 00:07:37;;;;;;;6.13;4.23;;;;;;;0.00;70.47;102161.53;1685520;83;21103;-63
2022/02/13 00:10:07;;;;;;;6.83;4.77;;;;;;;-0.05;70.41;102164.36;1684601;83;21581;-64
2022/02/13 00:12:35;;;;;;;7.40;4.67;;;;;;;-0.06;70.48;102162.67;1706014;81;20997;-63
2022/02/13 00:15:03;;;;;;;4.20;3.80;;;;;;;-0.05;70.26;102157.80;1701945;83;21045;-63
2022/02/13 00:17:30;;;;;;;6.43;4.57;;;;;;;-0.10;70.22;102160.27;1699950;83;21036;-63
2022/02/13 00:19:58;;;;;;;5.70;3.72;;;;;;;-0.14;70.14;102166.58;1701533;83;20981;-62
2022/02/13 00:22:24;;;;;;;4.73;3.80;;;;;;;-0.22;70.35;102173.03;1699257;81;21001;-64
2022/02/13 00:24:51;;;;;;;7.57;5.20;;;;;;;-0.28;70.56;102169.41;1700992;83;21031;-64
2022/02/13 00:27:19;;;;;;;7.00;5.03;;;;;;;-0.30;70.58;102170.38;1698162;83;21542;-63
2022/02/13 00:29:45;;;;;;;;;;;;;;;-0.32;70.83;102177.03;1703369;83;21050;-63
2022/02/13 00:32:13;;;;;;;5.87;3.87;;;;;;;-0.31;71.09;102171.31;1700254;83;20146;-63
2022/02/13 00:34:39;;;;;;;5.50;3.53;;;;;;;-0.37;71.23;102172.92;1715468;81;21017;-62
2022/02/13 00:37:06;;;;;;;5.22;3.72;;;;;;;-0.35;71.29;102166.68;1680137;83;22090;-62
2022/02/13 00:39:32;;;;;;;;;;;;;;;-0.34;71.20;102160.53;1695897;83;21240;-64
2022/02/13 00:41:58;;;;;;;3.97;3.50;;;;;;;-0.34;71.27;102159.22;1693712;83;20103;-65
2022/02/13 00:44:24;;;;;;;4.72;3.42;;;;;;;-0.38;71.44;102160.27;1698593;83;22287;-62
2022/02/13 00:46:50;;;;;;;3.77;3.15;;;;;;;-0.34;71.43;102159.22;1685212;83;21084;-62
2022/02/13 00:49:16;;;;;;;5.40;4.40;;;;;;;-0.40;71.60;102156.43;1708994;83;21013;-63
2022/02/13 00:51:42;;;;;;;3.47;3.10;;;;;;;-0.36;71.60;102164.97;1703731;83;21062;-62
2022/02/13 00:54:08;;;;;;;5.37;3.33;;;;;;;-0.39;71.71;102163.82;1693827;83;21509;-64
2022/02/13 00:56:34;;;;;;;4.22;2.50;;;;;;;-0.38;71.77;102172.05;1692939;83;21653;-63
2022/02/13 00:59:00;;;;;;;4.08;3.10;;;;;;;-0.39;71.79;102176.92;1680922;83;21061;-63
2022/02/13 01:01:26;;;;;;;4.67;3.80;;;;;;;-0.39;71.66;102175.61;1664368;85;21086;-63
2022/02/13 01:03:54;;;;;;;8.23;3.03;;;;;;;-0.38;71.82;102179.07;1700877;83;20954;-63
2022/02/13 01:06:20;;;;;;;6.10;3.47;;;;;;;-0.35;71.85;102181.56;1690179;83;21064;-62
2022/02/13 01:08:46;;;;;;;5.33;4.10;;;;;;;-0.38;71.80;102170.74;1682847;83;21538;-62
2022/02/13 01:11:12;;;;;;;3.60;2.70;;;;;;;-0.35;71.95;102167.98;1677301;84;21003;-63
2022/02/13 01:13:39;;;;;;;4.23;2.73;;;;;;;-0.36;72.07;102158.89;1656889;84;21584;-62
2022/02/13 01:16:06;;;;;;;3.10;2.77;;;;;;;-0.35;72.17;102157.51;1703654;83;21572;-63
2022/02/13 01:18:33;;;;;;;6.50;3.73;;;;;;;-0.39;72.13;102152.03;1704849;83;21113;-63
2022/02/13 01:20:59;;;;;;;4.08;3.45;;;;;;;-0.38;72.05;102149.78;1701777;83;21001;-63
2022/02/13 01:23:25;;;;;;;4.45;3.95;;;;;;;-0.42;71.91;102156.09;1681333;83;21005;-63
2022/02/13 01:25:51;;;;;;;4.05;3.30;;;;;;;-0.55;72.27;102155.81;1654240;85;20999;-63
2022/02/13 01:28:19;;;;;;;6.05;3.50;;;;;;;-0.57;72.59;102154.20;1693379;83;21556;-64
2022/02/13 01:30:46;;;;;;;4.30;3.50;;;;;;;-0.58;72.68;102157.28;1663522;85;21131;-64
2022/02/13 01:33:12;;;;;;;5.47;3.10;;;;;;;-0.65;72.62;102154.55;1701100;82;21009;-63
2022/02/13 01:35:40;;;;;;;6.80;3.97;;;;;;;-0.69;72.67;102149.92;1666443;85;21133;-62
2022/02/13 01:38:06;;;;;;;5.15;3.20;;;;;;;-0.72;72.83;102147.43;1687374;83;22333;-62
2022/02/13 01:40:32;;;;;;;5.30;3.77;;;;;;;-0.70;73.02;102152.60;1720929;83;21121;-62
2022/02/13 01:42:58;;;;;;;5.70;3.72;;;;;;;-0.73;73.14;102161.93;1693934;83;21017;-63
2022/02/13 01:45:25;;;;;;;6.25;3.65;;;;;;;-0.72;73.39;102165.76;1662186;84;21045;-63
2022/02/13 01:47:51;;;;;;;6.47;3.80;;;;;;;-0.72;73.56;102160.52;1701125;83;21104;-63
2022/02/13 01:50:18;;;;;;;8.35;4.30;;;;;;;-0.67;73.61;102163.79;1699200;83;21076;-63
2022/02/13 01:52:45;;;;;;;7.00;3.53;;;;;;;-0.62;73.65;102157.89;1704996;83;21048;-64
2022/02/13 01:55:11;;;;;;;;;;;;;;;-0.55;73.47;102157.59;1710904;82;21045;-63
2022/02/13 01:57:38;;;;;;;5.47;3.33;;;;;;;-0.56;73.09;102158.06;1665134;84;20142;-62
2022/02/13 02:00:06;;;;;;;7.12;4.17;;;;;;;-0.64;73.02;102154.92;1698078;83;21032;-62
2022/02/13 02:02:34;;;;;;;6.07;4.23;;;;;;;-0.68;72.90;102156.00;1704883;82;21088;-63
2022/02/13 02:05:02;;;;;;;5.87;3.83;;;;;;;-0.74;73.06;102159.75;1701647;82;21351;-63
2022/02/13 02:07:28;;;;;;;5.17;3.50;;;;;;;-1.14;73.23;102096.12;1707505;82;21494;-62
2022/02/13 02:09:55;;;;;;;7.33;4.27;;;;;;;-0.74;73.36;102166.77;1707264;82;21049;-63
2022/02/13 02:12:22;;;;;;;6.22;4.37;;;;;;;-0.74;73.34;102162.36;1712517;82;21063;-64
2022/02/13 02:14:48;;;;;;;5.37;3.40;;;;;;;-0.77;73.42;102159.91;1697899;82;20998;-63
2022/02/13 02:17:16;;;;;;;7.30;5.03;;;;;;;-0.79;73.51;102156.05;1720979;82;21018;-61
2022/02/13 02:19:42;;;;;;;7.90;4.95;;;;;;;-0.78;73.57;102159.50;1695730;82;21046;-62
2022/02/13 02:22:09;;;;;;;;;;;;;;;-0.80;73.75;102163.49;1702067;82;21541;-62
2022/02/13 02:24:36;;;;;;;8.70;5.40;;;;;;;-0.78;73.71;102164.73;1702471;82;20155;-63
2022/02/13 02:27:03;;;;;;;;;;;;;;;-0.82;73.81;102168.42;1710116;82;21755;-63
2022/02/13 02:29:30;;;;;;;9.03;6.30;;;;;;;-0.80;73.86;102162.66;1717222;82;20186;-63
2022/02/13 02:31:57;;;;;;;8.53;5.37;;;;;;;-0.83;73.88;102159.73;1693122;82;21083;-62
2022/02/13 02:34:24;;;;;;;11.00;7.42;;;;;;;-0.80;73.82;102160.03;1707653;82;21112;-64
2022/02/13 02:36:50;;;;;;;9.80;6.63;;;;;;;-0.84;73.95;102158.48;1706714;82;21637;-63
2022/02/13 02:39:16;;;;;;;7.78;5.83;;;;;;;-0.83;73.90;102160.16;1698822;82;21494;-62
2022/02/13 02:41:43;;;;;;;;;;;;;;;-0.85;74.02;102152.84;1706386;82;21529;-61
2022/02/13 02:44:09;;;;;;;8.00;4.93;;;;;;;-0.80;73.99;102160.03;1699003;82;20146;-62
2022/02/13 02:46:35;;;;;;;7.90;5.30;;;;;;;-0.84;74.07;102157.17;1702235;82;21061;-64
2022/02/13 02:49:01;;;;;;;6.30;4.83;;;;;;;-0.80;73.89;102154.80;1712573;82;21033;-61
2022/02/13 02:51:27;;;;;;;8.85;5.80;;;;;;;-0.80;74.00;102151.71;1708037;82;21014;-63
2022/02/13 02:53:54;;;;;;;9.28;7.05;;;;;;;-0.83;74.22;102150.56;1697796;82;21125;-62
2022/02/13 02:56:20;;;;;;;11.73;7.08;;;;;;;-0.85;74.22;102151.09;1698157;82;21593;-63
2022/02/13 02:58:46;;;;;;;7.67;5.60;;;;;;;-0.86;74.23;102154.62;1688284;82;20969;-62
2022/02/13 03:01:12;;;;;;;9.38;5.78;;;;;;;-0.88;74.25;102159.55;1724717;82;21013;-62
2022/02/13 03:03:38;;;;;;;5.62;4.70;;;;;;;-0.88;74.46;102151.22;1703779;82;21076;-66
2022/02/13 03:06:05;;;;;;;6.25;5.65;;;;;;;-0.94;74.75;102151.94;1712422;82;21069;-62
2022/02/13 03:08:32;;;;;;;8.20;6.23;;;;;;;-1.01;74.84;102167.94;1719378;82;21554;-62
2022/02/13 03:11:01;;;;;;;9.25;6.03;;;;;;;-1.08;75.08;102163.05;1716381;82;21527;-64
2022/02/13 03:13:27;;;;;;;10.57;5.97;;;;;;;-1.12;75.14;102162.33;1712628;82;21562;-63
2022/02/13 03:15:53;;;;;;;9.00;6.22;;;;;;;-1.13;75.08;102165.87;1715209;82;21010;-63
2022/02/13 03:18:19;;;;;;;7.55;6.37;;;;;;;-1.14;75.29;102162.02;1717148;82;21506;-63
2022/02/13 03:21:36;;;;;;;8.37;6.03;;;;;;;-1.13;75.51;102157.16;1814315;77;22992;-63
2022/02/13 03:24:07;;;;;;;9.03;7.00;;;;;;;-1.16;75.75;102156.84;1739059;80;21049;-63
2022/02/13 03:26:30;;;;;;;7.70;6.63;;;;;;;-1.12;75.73;102158.87;1750317;81;20982;-63
2022/02/13 03:28:56;;;;;;;9.53;8.63;;;;;;;-1.12;75.69;102158.87;1733278;81;21039;-61
2022/02/13 03:31:22;;;;;;;10.08;9.13;;;;;;;-1.14;75.57;102155.00;1753107;81;21532;-64
2022/02/13 03:33:48;;;;;;;11.68;9.98;;;;;;;-1.15;75.76;102156.38;1748146;80;21076;-62
2022/02/13 03:36:15;;;;;;;12.47;9.60;;;;;;;-1.15;75.91;102154.60;1722395;81;21005;-65
2022/02/13 03:38:41;;;;;;;10.98;8.63;;;;;;;-1.13;75.85;102152.80;1733756;81;21549;-62
2022/02/13 03:41:06;;;;;;;7.50;6.80;;;;;;;-1.11;75.97;102159.23;1721445;81;21017;-62
2022/02/13 03:43:33;;;;;;;9.70;7.15;;;;;;;-1.11;75.72;102151.39;1728236;81;21572;-64
2022/02/13 03:45:58;;;;;;;13.20;7.58;;;;;;;-1.14;75.82;102151.55;1705294;82;21068;-61
2022/02/13 03:48:25;;;;;;;7.95;6.47;;;;;;;-1.15;76.01;102151.14;1711080;83;21157;-62
2022/02/13 03:50:51;;;;;;;8.75;6.33;;;;;;;-1.13;75.99;102152.80;1709794;83;21069;-61
2022/02/13 03:53:17;;;;;;;6.80;5.80;;;;;;;-1.53;75.91;102093.05;1701273;83;21072;-60
2022/02/13 03:55:44;;;;;;;6.62;5.92;;;;;;;-1.23;75.97;102146.25;1698882;83;21735;-60
2022/02/13 03:58:10;;;;;;;7.85;5.05;;;;;;;-1.24;76.18;102143.26;1692177;84;21063;-62
2022/02/13 04:00:36;;;;;;;9.05;5.53;;;;;;;-1.23;76.47;102141.02;1686709;84;21083;-62
2022/02/13 04:03:02;;;;;;;7.83;5.42;;;;;;;-1.22;76.47;102136.19;1666571;84;21087;-61
2022/02/13 04:05:31;;;;;;;6.17;5.10;;;;;;;-1.25;76.41;102133.70;1662924;84;21030;-61
2022/02/13 04:07:57;;;;;;;7.53;5.23;;;;;;;-1.26;76.58;102126.31;1636216;86;21109;-61
2022/02/13 04:10:23;;;;;;;6.95;4.53;;;;;;;-1.27;76.69;102124.59;1645664;86;21030;-61
2022/02/13 04:12:49;;;;;;;5.80;5.03;;;;;;;-1.26;76.58;102125.44;1648596;84;21013;-61
2022/02/13 04:15:15;;;;;;;7.67;5.97;;;;;;;-1.30;76.71;102119.52;1667265;85;21461;-62
2022/02/13 04:17:44;;;;;;;10.97;7.33;;;;;;;-1.30;76.84;102114.72;1663879;84;21710;-61
2022/02/13 04:20:11;;;;;;;7.50;5.42;;;;;;;-1.30;76.93;102116.91;1652711;85;21143;-62
2022/02/13 04:22:38;;;;;;;6.47;5.87;;;;;;;-1.29;76.98;102109.90;1650492;85;21123;-61
2022/02/13 04:25:04;;;;;;;6.40;4.80;;;;;;;-1.26;77.08;102113.66;1662730;85;21044;-63
2022/02/13 04:27:31;;;;;;;5.50;4.63;;;;;;;-1.29;76.97;102117.75;1660950;85;21068;-62
2022/02/13 04:29:57;;;;;;;5.80;4.80;;;;;;;-1.29;77.05;102113.36;1639547;85;21622;-61
2022/02/13 04:32:23;;;;;;;11.90;4.53;;;;;;;-1.27;77.07;102123.76;1636751;85;21091;-61
2022/02/13 04:34:50;;;;;;;7.08;4.97;;;;;;;-1.29;77.05;102115.13;1635905;86;21081;-61
2022/02/13 04:37:18;;;;;;;5.27;4.87;;;;;;;-1.31;77.11;102125.66;1639593;85;21582;-62
2022/02/13 04:39:44;;;;;;;7.60;5.35;;;;;;;-1.31;77.22;102121.73;1645405;85;21069;-61
2022/02/13 04:42:12;;;;;;;6.05;5.03;;;;;;;-1.29;77.29;102120.36;1681882;83;21041;-63
2022/02/13 04:44:42;;;;;;;4.97;4.37;;;;;;;-1.27;77.45;102119.83;1674459;83;21805;-64
2022/02/13 04:47:08;;;;;;;7.87;4.90;;;;;;;-1.26;77.24;102118.46;1669951;84;21032;-64
2022/02/13 04:49:34;;;;;;;;;;;;;;;-1.29;77.20;102112.05;1670882;84;21085;-63
2022/02/13 04:52:01;;;;;;;8.50;5.60;;;;;;;-1.30;77.18;102119.52;1671458;84;20102;-64
2022/02/13 04:54:27;;;;;;;8.53;5.12;;;;;;;-1.32;77.48;102117.87;1673066;84;21048;-65
2022/02/13 04:56:54;;;;;;;;;;;;;;;-1.31;77.59;102111.27;1694976;83;21537;-64
2022/02/13 04:59:20;;;;;;;8.37;5.50;;;;;;;-1.27;77.56;102113.30;1694288;83;20526;-63
2022/02/13 05:01:46;;;;;;;7.90;5.90;;;;;;;-1.32;77.46;102109.55;1722295;81;21526;-66
2022/02/13 05:04:13;;;;;;;6.80;5.37;;;;;;;-1.31;77.41;102111.73;1727163;81;22170;-64
2022/02/13 05:06:39;;;;;;;9.28;6.33;;;;;;;-1.31;77.49;102113.05;1726094;81;21550;-64
2022/02/13 05:09:05;;;;;;;7.22;5.97;;;;;;;-1.26;77.42;102109.74;1740480;81;21589;-67
2022/02/13 05:11:31;;;;;;;6.40;5.67;;;;;;;-1.64;77.37;102048.20;1717731;81;20975;-63
2022/02/13 05:14:01;;;;;;;8.03;6.60;;;;;;;-1.28;77.32;102126.84;1733950;81;21037;-63
2022/02/13 05:16:26;;;;;;;8.77;6.33;;;;;;;-1.27;77.28;102125.06;1693349;83;21526;-64
2022/02/13 05:18:53;;;;;;;8.73;6.17;;;;;;;-1.27;77.35;102131.61;1735420;81;21010;-65
2022/02/13 05:21:19;;;;;;;8.15;5.55;;;;;;;-1.26;77.31;102130.67;1732723;81;21070;-64
2022/02/13 05:23:45;;;;;;;11.18;6.90;;;;;;;-1.26;77.33;102128.05;1727099;81;21037;-64
2022/02/13 05:26:14;;;;;;;7.53;6.37;;;;;;;-1.25;77.26;102133.70;1722731;81;20999;-61
2022/02/13 05:28:41;;;;;;;9.33;7.17;;;;;;;-1.25;77.29;102135.84;1734077;81;20998;-62
2022/02/13 05:31:07;;;;;;;8.53;7.62;;;;;;;-1.20;77.23;102137.81;1737365;81;21034;-59
2022/02/13 05:33:34;;;;;;;8.80;7.80;;;;;;;-0.98;78.36;102136.83;1740718;80;21669;-60
2022/02/13 05:36:00;;;;;;;11.43;7.42;;;;;;;-0.55;78.96;102137.48;1740666;80;21113;-61
2022/02/13 05:38:26;;;;;;;7.47;6.40;;;;;;;0.01;78.14;102135.68;1738908;80;21478;-60
2022/02/13 05:40:52;;;;;;;10.48;6.05;;;;;;;0.52;73.99;102133.12;1741891;80;21136;-60
2022/02/13 05:43:19;;;;;;;11.28;8.18;;;;;;;0.83;72.77;102131.08;1745329;80;21731;-62
2022/02/13 05:45:45;;;;;;;;;;;;;;;1.08;71.17;102128.45;1727565;80;21075;-61
2022/02/13 05:48:13;;;;;;;9.00;6.57;;;;;;;1.21;69.18;102129.48;1715569;82;20117;-62
2022/02/13 05:50:41;;;;;;;7.97;6.87;;;;;;;1.23;69.57;102132.88;1717838;82;20992;-62
2022/02/13 05:53:08;;;;;;;7.97;7.17;;;;;;;1.46;68.69;102139.95;1717123;82;21371;-61
2022/02/13 05:55:34;;;;;;;14.63;7.57;;;;;;;1.67;67.15;102140.06;1712889;80;21045;-61
2022/02/13 05:58:00;;;;;;;9.38;7.90;;;;;;;1.99;66.58;102137.39;1694430;83;21535;-60
2022/02/13 06:00:26;;;;;;;11.75;8.75;;;;;;;2.36;64.89;102133.09;1696631;83;21519;-62
2022/02/13 06:02:52;;;;;;;13.08;8.48;;;;;;;2.73;64.19;102129.08;1692400;83;20999;-66
2022/02/13 06:05:19;;;;;;;11.40;8.98;;;;;;;3.17;63.08;102139.16;1682718;83;21565;-63
2022/02/13 06:07:45;;;;;;;9.55;7.92;;;;;;;3.61;61.69;102133.67;1698024;83;21494;-64
2022/02/13 06:10:12;;;;;;;12.47;8.93;;;;;;;4.01;59.91;102136.38;1689739;83;21007;-62
2022/02/13 06:12:39;;;;;;;12.95;9.45;;;;;;;4.44;58.27;102141.39;1707465;83;21007;-64
2022/02/13 06:15:09;;;;;;;13.27;8.80;;;;;;;4.67;57.57;102136.33;1705158;82;21043;-61
2022/02/13 06:17:36;;;;;;;9.67;7.93;;;;;;;4.69;56.28;102130.50;1714495;82;21134;-61
2022/02/13 06:20:05;;;;;;;;;;;;;;;4.30;56.69;102132.26;1702466;82;21162;-64
2022/02/13 06:22:31;;;;;;;11.83;8.10;;;;;;;3.67;58.02;102131.98;1699916;82;20149;-64
2022/02/13 06:24:58;;;;;;;11.63;9.18;;;;;;;2.98;59.78;102127.60;1710973;82;21837;-64
2022/02/13 06:27:24;;;;;;;12.63;9.00;;;;;;;2.44;61.17;102126.89;1709209;82;20994;-60
2022/02/13 06:29:50;;;;;;;12.45;9.30;;;;;;;1.92;62.99;102125.08;1714358;82;21042;-62
2022/02/13 06:32:16;;;;;;;16.45;9.38;;;;;;;1.55;64.52;102125.83;1714091;82;21028;-68
2022/02/13 06:34:43;;;;;;;14.15;9.43;;;;;;;1.25;65.61;102123.12;1726118;81;21547;-61
2022/02/13 06:37:09;;;;;;;14.97;9.97;;;;;;;1.02;66.72;102126.13;1734192;81;21056;-61
2022/02/13 06:39:35;;;;;;;18.35;11.38;;;;;;;0.73;67.85;102103.12;1730555;81;21015;-59
2022/02/13 06:42:03;;;;;;;13.72;10.72;;;;;;;0.66;68.28;102120.16;1743938;81;21039;-60
2022/02/13 06:44:29;;;;;;;15.77;11.23;;;;;;;0.48;68.60;102124.56;1742963;81;21046;-59
2022/02/13 06:46:55;;;;;;;14.85;10.70;;;;;;;0.38;70.83;102127.29;1717887;82;20963;-61
2022/02/13 06:49:21;;;;;;;15.43;11.38;;;;;;;0.35;70.30;102128.27;1717832;82;21010;-61
2022/02/13 06:51:47;;;;;;;14.98;10.95;;;;;;;0.29;70.34;102129.06;1718035;82;21033;-61
2022/02/13 06:54:13;;;;;;;16.55;11.80;;;;;;;0.23;70.49;102122.80;1720566;82;21240;-60
2022/02/13 06:56:40;;;;;;;14.53;11.30;;;;;;;0.10;70.44;102127.36;1688615;82;22153;-63
2022/02/13 06:59:06;;;;;;;17.77;11.68;;;;;;;0.05;70.98;102126.73;1687936;84;21061;-60
2022/02/13 07:01:32;;;;;;;16.82;11.97;;;;;;;0.06;71.37;102125.82;1691773;83;20983;-60
2022/02/13 07:03:58;;;;;;;16.15;11.15;;;;;;;0.06;70.80;102121.89;1701840;82;20990;-62
2022/02/13 07:06:24;;;;;;;19.02;11.65;;;;;;;0.10;70.84;102122.11;1655980;85;21177;-66
2022/02/13 07:08:50;;;;;;;15.28;10.60;;;;;;;0.10;70.84;102122.11;1667871;85;21111;-60
2022/02/13 07:11:17;;;;;;;16.95;11.60;;;;;;;0.11;70.77;102120.33;1654382;85;20970;-65
2022/02/13 07:13:44;;;;;;;17.13;12.50;;;;;;;0.13;70.69;102122.41;1653919;85;21054;-62
2022/02/13 07:16:10;;;;;;;15.83;10.80;;;;;;;0.11;70.68;102116.40;1693339;83;21013;-63
2022/02/13 07:18:37;;;;;;;16.07;11.60;;;;;;;0.09;70.60;102118.25;1675930;84;20963;-61
2022/02/13 07:21:03;;;;;;;14.95;9.60;;;;;;;0.14;70.42;102117.09;1663830;85;21623;-61
2022/02/13 07:23:29;;;;;;;18.75;11.95;;;;;;;0.19;70.46;102114.27;1638957;85;21570;-63
2022/02/13 07:25:55;;;;;;;13.72;10.85;;;;;;;0.26;70.32;102115.63;1699480;83;21026;-62
2022/02/13 07:31:06;;;;;;;16.30;11.60;;;;;;;0.32;70.13;102109.22;1695469;83;20982;-61
2022/02/13 07:33:34;;;;;;;13.88;11.18;;;;;;;0.37;70.13;102111.98;1687819;83;21010;-62
2022/02/13 07:36:00;;;;;;;15.70;11.50;;;;;;;0.43;69.63;102106.05;1672451;84;21528;-64
2022/02/13 07:38:26;;;;;;;15.48;11.00;;;;;;;0.48;69.41;102106.67;1674491;84;21096;-76
2022/02/13 07:40:54;;;;;;;13.30;10.67;;;;;;;0.52;69.16;102112.14;1635650;85;22221;-74
2022/02/13 07:43:20;;;;;;;14.50;11.78;;;;;;;0.59;69.09;102106.96;1676327;84;22081;-73
2022/02/13 07:45:46;;;;;;;15.63;10.90;;;;;;;0.65;68.57;102109.73;1672095;84;21542;-77
2022/02/13 07:48:12;;;;;;;16.50;11.55;;;;;;;0.72;68.42;102113.73;1676799;84;21027;-75
2022/02/13 07:50:39;;;;;;;17.12;11.10;;;;;;;0.80;68.28;102111.54;1646184;85;21162;-74
2022/02/13 07:53:04;;;;;;;17.52;11.85;;;;;;;0.85;67.84;102109.53;1664077;84;21069;-77
2022/02/13 07:55:33;;;;;;;16.50;11.80;;;;;;;0.90;67.62;102100.08;1647892;85;21163;-75
2022/02/13 07:57:59;;;;;;;14.93;10.43;;;;;;;0.90;67.27;102097.45;1657728;85;21323;-74
2022/02/13 08:00:26;;;;;;;16.10;11.60;;;;;;;0.95;66.71;102096.27;1633440;85;21065;-74
2022/02/13 08:02:52;;;;;;;18.17;11.00;;;;;;;1.00;66.84;102094.73;1647840;86;21089;-75
2022/02/13 08:05:19;;;;;;;19.92;11.53;;;;;;;1.09;66.67;102088.11;1689419;84;21034;-75
2022/02/13 08:07:46;;;;;;;18.75;10.48;;;;;;;1.09;66.68;102092.05;1682508;84;21113;-74
2022/02/13 08:10:17;;;;;;;15.43;10.63;;;;;;;1.15;66.47;102093.05;1683543;84;21822;-76
2022/02/13 08:12:45;;;;;;;15.47;10.13;;;;;;;1.21;66.57;102091.39;1666988;84;21080;-75
2022/02/13 08:15:14;;;;;;;15.07;11.07;;;;;;;1.28;66.33;102094.06;1673074;84;21574;-69
2022/02/13 08:17:40;;;;;;;16.77;12.07;;;;;;;1.42;66.26;102087.20;1670257;84;21081;-74
2022/02/13 08:20:07;;;;;;;14.87;10.25;;;;;;;1.45;64.97;102087.00;1671755;84;21526;-76
2022/02/13 08:22:35;;;;;;;16.17;11.03;;;;;;;1.41;64.66;102082.86;1669277;83;21670;-74
2022/02/13 08:25:03;;;;;;;15.73;10.63;;;;;;;1.44;64.83;102079.59;1692751;83;21098;-75
2022/02/13 08:27:30;;;;;;;18.87;11.17;;;;;;;1.56;64.81;102083.30;1689939;83;21099;-77
2022/02/13 08:29:56;;;;;;;16.10;9.47;;;;;;;1.69;64.00;102079.52;1695167;83;21030;-75
2022/02/13 08:32:23;;;;;;;;;;;;;;;1.79;63.43;102072.81;1694309;83;21151;-74
2022/02/13 08:34:49;;;;;;;13.43;7.57;;;;;;;1.84;63.09;102076.00;1681404;82;20209;-75
2022/02/13 08:37:17;;;;;;;8.37;6.80;;;;;;;1.88;63.29;102078.83;1698982;82;21030;-74
2022/02/13 08:39:43;;;;;;;;;;;;;;;1.95;63.10;102070.13;1678601;82;21020;-74
2022/02/13 08:42:10;;;;;;;6.57;5.30;;;;;;;2.05;62.12;102073.89;1696591;82;20124;-76
2022/02/13 08:44:36;;;;;;;7.57;5.27;;;;;;;2.07;60.82;102072.05;1694609;82;21534;-74
2022/02/13 08:47:02;;;;;;;7.28;5.03;;;;;;;2.16;60.65;102069.32;1695572;83;21101;-72
2022/02/13 08:49:28;;;;;;;9.28;5.25;;;;;;;2.24;59.08;102067.55;1680078;83;21537;-72
2022/02/13 08:51:56;;;;;;;7.75;5.12;;;;;;;2.32;59.00;102067.95;1690226;83;21530;-75
2022/02/13 08:54:22;;;;;;;4.87;4.23;;;;;;;2.41;59.14;102071.35;1686798;83;20984;-73
2022/02/13 08:56:49;;;;;;;5.63;4.67;;;;;;;2.51;58.58;102073.79;1708693;82;21012;-74
2022/02/13 08:59:15;;;;;;;6.30;3.58;;;;;;;2.62;57.96;102062.61;1723926;82;21613;-73
2022/02/13 09:01:43;;;;;;;4.45;3.87;;;;;;;2.69;57.50;102065.70;1699873;82;21651;-76
2022/02/13 09:04:11;;;;;;;4.23;3.70;;;;;;;2.77;57.22;102072.67;1688736;82;21034;-74
2022/02/13 09:06:37;;;;;;;3.50;3.20;;;;;;;2.82;56.88;102066.63;1685512;82;21044;-70
2022/02/13 09:09:03;;;;;;;3.77;3.30;;;;;;;2.89;56.57;102063.16;1694826;82;21056;-68
2022/02/13 09:11:30;;;;;;;4.67;3.85;;;;;;;2.97;56.55;102067.94;1691809;82;21053;-68
2022/02/13 09:13:57;;;;;;;6.15;4.58;;;;;;;3.03;56.14;102059.64;1680802;82;21018;-68
2022/02/13 09:16:23;;;;;;;5.12;4.35;;;;;;;3.08;56.32;102060.20;1691576;82;21065;-68
2022/02/13 09:18:51;;;;;;;3.90;2.97;;;;;;;3.11;56.14;102058.70;1677445;82;21002;-69
2022/02/13 09:21:18;;;;;;;4.15;3.22;;;;;;;3.10;55.22;102058.31;1684725;82;21160;-68
2022/02/13 09:23:44;;;;;;;5.75;3.83;;;;;;;3.10;55.75;102054.36;1644728;82;21097;-69
2022/02/13 09:26:10;;;;;;;4.60;3.72;;;;;;;3.19;55.65;102052.46;1634810;85;21064;-70
2022/02/13 09:28:37;;;;;;;5.15;3.55;;;;;;;3.22;54.96;102058.86;1622647;86;21069;-68
2022/02/13 09:31:04;;;;;;;;;;;;;;;3.27;55.43;102055.44;1648174;86;21570;-70
2022/02/13 09:33:31;;;;;;;3.20;2.20;;;;;;;3.35;55.50;102048.36;1645407;83;20139;-69
2022/02/13 09:35:57;;;;;;;3.62;3.25;;;;;;;3.32;54.73;102048.57;1652532;85;21037;-70
2022/02/13 09:38:23;;;;;;;4.00;2.65;;;;;;;3.31;54.80;102037.64;1642884;85;21442;-69
2022/02/13 09:40:50;;;;;;;4.67;3.15;;;;;;;3.27;54.55;102036.98;1647783;85;21216;-71
2022/02/13 09:43:22;;;;;;;6.93;3.60;;;;;;;3.23;55.25;102039.94;1640380;86;21121;-71
2022/02/13 09:45:52;;;;;;;5.37;3.43;;;;;;;3.23;55.05;102033.34;1649764;85;21018;-71
2022/02/13 09:48:21;;;;;;;6.37;3.17;;;;;;;3.24;54.69;102028.44;1646579;85;21046;-72
2022/02/13 09:50:48;;;;;;;4.30;2.17;;;;;;;3.28;55.01;102028.16;1649685;85;21109;-74
2022/02/13 09:53:17;;;;;;;4.53;3.07;;;;;;;3.36;54.88;102023.70;1641250;86;21190;-72
2022/02/13 09:55:44;;;;;;;5.63;3.07;;;;;;;3.36;54.56;102015.80;1638884;84;21158;-75
2022/02/13 09:58:10;;;;;;;6.07;3.00;;;;;;;3.31;54.50;102012.60;1679660;83;21555;-73
2022/02/13 10:01:02;;;;;;;4.97;3.07;;;;;;;3.36;54.54;102010.52;1684486;83;21151;-72
2022/02/13 10:03:41;;;;;;;3.43;2.40;;;;;;;3.36;54.40;102007.05;1672232;83;21011;-72
2022/02/13 10:06:17;;;;;;;3.80;2.63;;;;;;;3.38;54.38;101997.25;1675981;83;21027;-73
2022/02/13 10:08:54;;;;;;;3.03;2.67;;;;;;;3.39;53.95;102006.83;1678297;83;21114;-73
2022/02/13 10:11:32;;;;;;;5.10;3.60;;;;;;;3.40;54.21;101998.83;1678982;83;21102;-73
2022/02/13 10:14:15;;;;;;;3.87;2.60;;;;;;;3.42;54.24;101993.45;1678909;83;21354;-75
2022/02/13 10:16:46;;;;;;;4.10;3.70;;;;;;;3.46;54.41;101982.59;1678845;83;21047;-73
2022/02/13 10:19:26;;;;;;;3.20;2.90;;;;;;;3.57;54.44;101981.05;1681071;83;21032;-74
2022/02/13 10:21:55;;;;;;;5.90;2.47;;;;;;;3.62;53.20;101980.28;1682568;83;21064;-75
2022/02/13 10:24:38;;;;;;;5.33;2.53;;;;;;;3.62;53.45;101969.25;1648860;83;21091;-72
2022/02/13 10:27:15;;;;;;;3.77;2.70;;;;;;;3.57;53.22;101953.37;1632523;86;21096;-72
2022/02/13 10:29:44;;;;;;;4.62;3.08;;;;;;;3.68;52.78;101966.67;1652001;85;21104;-72
2022/02/13 10:32:25;;;;;;;4.33;2.90;;;;;;;3.78;53.37;101970.84;1644811;85;21065;-72
2022/02/13 10:35:10;;;;;;;6.80;3.47;;;;;;;3.90;53.38;101960.80;1654998;84;21009;-72
2022/02/13 10:37:46;;;;;;;5.83;2.87;;;;;;;4.02;53.16;101958.62;1636545;86;21037;-72
2022/02/13 10:40:19;;;;;;;4.00;2.97;;;;;;;4.06;52.88;101956.13;1654203;85;21001;-73
2022/02/13 10:42:47;;;;;;;4.20;2.77;;;;;;;4.04;52.33;101958.52;1628667;86;21162;-72
2022/02/13 10:45:24;;;;;;;2.47;2.20;;;;;;;4.00;52.60;101955.24;1611235;86;21125;-72
2022/02/13 10:47:57;;;;;;;2.47;2.00;;;;;;;3.92;52.10;101940.42;1669648;84;21153;-75
2022/02/13 10:50:23;;;;;;;2.40;1.80;;;;;;;3.85;51.92;101943.95;1673412;84;21066;-73
2022/02/13 10:52:59;;;;;;;2.10;1.90;;;;;;;3.78;52.33;101945.79;1660417;84;21062;-71
2022/02/13 10:55:30;;;;;;;2.47;2.27;;;;;;;3.67;52.47;101930.23;1663030;83;21586;-72
2022/02/13 10:57:58;;;;;;;3.00;1.97;;;;;;;3.66;53.07;101931.17;1667461;84;21049;-74
2022/02/13 11:00:29;;;;;;;3.30;2.20;;;;;;;3.62;52.83;101923.11;1671907;84;21081;-73
2022/02/13 11:02:55;;;;;;;4.43;2.73;;;;;;;3.53;53.39;101916.30;1668311;84;21065;-72
2022/02/13 11:05:28;;;;;;;4.53;3.27;;;;;;;3.51;53.76;101929.58;1667295;84;21154;-72
2022/02/13 11:07:59;;;;;;;5.47;2.80;;;;;;;3.51;54.00;101921.67;1665195;84;21062;-73
2022/02/13 11:10:35;;;;;;;2.50;2.13;;;;;;;3.53;54.33;101921.56;1657638;84;21040;-72
2022/02/13 11:13:01;;;;;;;2.37;2.17;;;;;;;3.49;54.10;101908.58;1660632;84;21054;-71
2022/02/13 11:15:30;;;;;;;2.05;1.70;;;;;;;3.49;53.20;101907.75;1682849;84;21525;-75
2022/02/13 11:18:11;;;;;;;2.63;1.73;;;;;;;3.47;53.26;101901.73;1685949;84;21564;-73
2022/02/13 11:20:38;;;;;;;2.97;2.10;;;;;;;3.46;53.65;101894.77;1621851;87;21051;-74
2022/02/13 11:23:25;;;;;;;2.13;1.90;;;;;;;3.48;54.03;101898.14;1685016;83;21038;-71
2022/02/13 11:26:02;;;;;;;2.37;1.95;;;;;;;3.48;54.02;101899.00;1658658;84;21054;-74
2022/02/13 11:28:54;;;;;;;2.30;2.08;;;;;;;3.49;53.65;101891.93;1676294;84;21034;-72
2022/02/13 11:31:45;;;;;;;2.97;2.40;;;;;;;3.46;54.04;101891.64;1674983;84;21042;-72
2022/02/13 11:34:28;;;;;;;1.87;1.77;;;;;;;3.48;54.00;101880.55;1690828;83;21024;-71